createdAt,value
2023-02-08T00:01:29.769Z,41.24
2023-02-08T00:03:58.368Z,41.71
2023-02-08T00:06:27.129Z,41.58
2023-02-08T00:08:55.617Z,41.46
2023-02-08T00:11:23.600Z,41.16
2023-02-08T00:13:51.740Z,41.20
2023-02-08T00:16:20.137Z,41.46
2023-02-08T00:18:48.378Z,41.31
2023-02-08T00:21:19.970Z,41.18
2023-02-08T00:23:49.021Z,41.47
2023-02-08T00:26:17.513Z,41.04
2023-02-08T00:28:47.416Z,41.31
2023-02-08T00:31:19.328Z,41.63
2023-02-08T00:33:47.193Z,41.56
2023-02-08T00:36:15.206Z,41.39
2023-02-08T00:38:43.204Z,41.38
2023-02-08T00:41:11.586Z,41.65
2023-02-08T00:43:40.273Z,41.71
2023-02-08T00:46:11.184Z,41.63
2023-02-08T00:48:39.239Z,41.71
2023-02-08T00:51:13.904Z,41.79
2023-02-08T00:53:46.074Z,41.20
2023-02-08T00:56:16.324Z,41.77
2023-02-08T00:58:45.317Z,41.51
2023-02-08T01:01:14.826Z,41.85
2023-02-08T01:03:44.925Z,41.80
2023-02-08T01:06:18.852Z,41.71
2023-02-08T01:08:48.110Z,41.93
2023-02-08T01:11:22.724Z,41.61
2023-02-08T01:13:57.253Z,41.93
2023-02-08T01:16:32.831Z,41.76
2023-02-08T01:19:03.731Z,41.52
2023-02-08T01:21:39.403Z,41.84
2023-02-08T01:24:08.032Z,41.84
2023-02-08T01:26:36.446Z,41.50
2023-02-08T01:29:07.196Z,41.73
2023-02-08T01:31:39.456Z,41.73
2023-02-08T01:34:09.052Z,41.38
2023-02-08T01:36:38.025Z,41.70
2023-02-08T01:39:07.646Z,41.64
2023-02-08T01:41:39.673Z,41.48
2023-02-08T01:44:08.187Z,41.19
2023-02-08T01:46:41.046Z,41.40
2023-02-08T01:49:34.797Z,41.55
2023-02-08T01:52:19.343Z,41.17
2023-02-08T01:55:20.552Z,41.36
2023-02-08T01:57:53.074Z,41.60
2023-02-08T02:00:24.651Z,41.48
2023-02-08T02:02:55.764Z,41.66
2023-02-08T02:05:29.670Z,41.47
2023-02-08T02:08:00.221Z,41.76
2023-02-08T02:10:32.664Z,41.31
2023-02-08T02:13:13.100Z,41.44
2023-02-08T02:15:45.885Z,41.82
2023-02-08T02:18:31.170Z,41.13
2023-02-08T02:21:36.640Z,41.75
2023-02-08T02:24:39.093Z,41.43
2023-02-08T02:27:22.600Z,41.52
2023-02-08T02:30:26.655Z,41.77
2023-02-08T02:33:37.174Z,41.56
2023-02-08T02:36:51.691Z,41.47
2023-02-08T02:39:54.342Z,41.50
2023-02-08T02:43:18.136Z,41.89
2023-02-08T02:46:20.704Z,41.41
2023-02-08T02:49:04.018Z,41.39
2023-02-08T02:51:51.532Z,41.68
2023-02-08T02:54:33.449Z,41.50
2023-02-08T02:57:06.448Z,41.46
2023-02-08T02:59:36.587Z,41.82
2023-02-08T03:02:04.984Z,41.53
2023-02-08T03:04:32.710Z,42.00
2023-02-08T03:07:20.658Z,41.57
2023-02-08T03:10:14.590Z,41.74
2023-02-08T03:13:09.526Z,41.91
2023-02-08T03:15:59.475Z,41.89
2023-02-08T03:19:02.122Z,41.92
2023-02-08T03:22:12.740Z,41.83
2023-02-08T03:24:58.476Z,41.79
2023-02-08T03:27:44.858Z,41.99
2023-02-08T03:30:45.870Z,41.95
2023-02-08T03:33:21.076Z,42.38
2023-02-08T03:36:27.241Z,42.17
2023-02-08T03:38:56.015Z,41.99
2023-02-08T03:41:32.739Z,42.32
2023-02-08T03:44:09.567Z,42.62
2023-02-08T03:47:22.232Z,41.96
2023-02-08T03:49:53.576Z,42.29
2023-02-08T03:52:22.663Z,42.23
2023-02-08T03:55:05.012Z,42.34
2023-02-08T03:57:46.669Z,41.86
2023-02-08T04:00:18.492Z,42.38
2023-02-08T04:03:19.374Z,41.93
2023-02-08T04:05:47.927Z,42.57
2023-02-08T04:08:16.022Z,42.13
2023-02-08T04:10:43.910Z,42.54
2023-02-08T04:13:11.862Z,41.96
2023-02-08T04:15:39.685Z,42.17
2023-02-08T04:18:07.485Z,42.60
2023-02-08T04:20:35.355Z,42.53
2023-02-08T04:23:03.172Z,42.49
2023-02-08T04:25:31.047Z,42.13
2023-02-08T04:27:59.832Z,42.03
2023-02-08T04:30:27.740Z,42.59
2023-02-08T04:32:55.526Z,42.04
2023-02-08T04:35:23.215Z,42.60
2023-02-08T04:37:51.367Z,42.75
2023-02-08T04:40:19.161Z,42.60
2023-02-08T04:42:46.899Z,42.88
2023-02-08T04:45:14.769Z,42.66
2023-02-08T04:47:42.521Z,42.74
2023-02-08T04:50:10.487Z,42.77
2023-02-08T04:52:38.276Z,42.44
2023-02-08T04:55:06.700Z,43.05
2023-02-08T04:57:34.395Z,42.83
2023-02-08T05:00:02.380Z,42.88
2023-02-08T05:02:30.169Z,42.90
2023-02-08T05:04:57.977Z,42.88
2023-02-08T05:07:25.846Z,43.36
2023-02-08T05:09:53.953Z,43.51
2023-02-08T05:12:21.775Z,43.26
2023-02-08T05:14:49.879Z,43.48
2023-02-08T05:17:17.595Z,43.45
2023-02-08T05:19:45.265Z,43.16
2023-02-08T05:22:12.956Z,43.10
2023-02-08T05:24:40.706Z,43.06
2023-02-08T05:27:08.463Z,42.99
2023-02-08T05:29:36.180Z,43.05
2023-02-08T05:32:04.227Z,42.83
2023-02-08T05:34:32.095Z,43.27
2023-02-08T05:37:00.046Z,43.09
2023-02-08T05:39:27.765Z,43.09
2023-02-08T05:41:55.638Z,43.48
2023-02-08T05:44:23.304Z,43.48
2023-02-08T05:46:51.337Z,43.48
2023-02-08T05:49:19.094Z,43.30
2023-02-08T05:51:46.838Z,43.47
2023-02-08T05:54:14.779Z,43.41
2023-02-08T05:56:42.807Z,43.38
2023-02-08T05:59:11.295Z,43.78
2023-02-08T06:01:39.191Z,43.35
2023-02-08T06:04:07.172Z,43.63
2023-02-08T06:06:34.939Z,43.77
2023-02-08T06:09:03.112Z,43.88
2023-02-08T06:11:30.944Z,43.69
2023-02-08T06:13:58.691Z,43.92
2023-02-08T06:16:27.244Z,43.48
2023-02-08T06:18:55.042Z,43.75
2023-02-08T06:21:24.459Z,43.70
2023-02-08T06:23:52.437Z,43.38
2023-02-08T06:26:20.456Z,43.66
2023-02-08T06:28:48.156Z,43.77
2023-02-08T06:31:15.848Z,43.69
2023-02-08T06:33:43.599Z,43.62
2023-02-08T06:36:11.270Z,43.61
2023-02-08T06:38:39.032Z,43.51
2023-02-08T06:41:06.762Z,43.63
2023-02-08T06:43:34.484Z,43.86
2023-02-08T06:46:04.939Z,43.67
2023-02-08T06:48:32.903Z,43.31
2023-02-08T06:51:01.012Z,43.41
2023-02-08T06:53:29.385Z,43.15
2023-02-08T06:55:57.410Z,43.58
2023-02-08T06:58:25.183Z,43.72
2023-02-08T07:00:53.180Z,43.36
2023-02-08T07:03:22.481Z,43.58
2023-02-08T07:06:04.195Z,43.30
2023-02-08T07:08:35.920Z,43.33
2023-02-08T07:11:12.098Z,43.34
2023-02-08T07:13:40.417Z,43.11
2023-02-08T07:16:10.189Z,43.22
2023-02-08T07:18:38.053Z,43.47
2023-02-08T07:21:06.320Z,43.23
2023-02-08T07:23:34.227Z,43.22
2023-02-08T07:26:11.041Z,43.16
2023-02-08T07:28:38.997Z,43.64
2023-02-08T07:31:09.743Z,43.27
2023-02-08T07:33:38.559Z,43.38
2023-02-08T07:36:08.003Z,43.51
2023-02-08T07:38:36.896Z,43.55
2023-02-08T07:41:08.511Z,44.02
2023-02-08T07:43:38.740Z,43.37
2023-02-08T07:46:10.326Z,43.63
2023-02-08T07:48:40.236Z,43.76
2023-02-08T07:51:09.701Z,44.08
2023-02-08T07:53:38.129Z,44.00
2023-02-08T07:56:06.584Z,43.99
2023-02-08T07:58:34.258Z,44.09
2023-02-08T08:01:15.842Z,44.05
2023-02-08T08:03:51.222Z,44.06
2023-02-08T08:06:23.291Z,44.06
2023-02-08T08:08:51.598Z,44.44
2023-02-08T08:11:21.234Z,44.39
2023-02-08T08:13:50.224Z,44.35
2023-02-08T08:16:18.971Z,44.35
2023-02-08T08:18:48.303Z,44.33
2023-02-08T08:21:16.748Z,44.74
2023-02-08T08:23:44.818Z,44.39
2023-02-08T08:26:21.450Z,44.36
2023-02-08T08:28:49.662Z,44.44
2023-02-08T08:31:21.338Z,44.39
2023-02-08T08:33:49.712Z,44.12
2023-02-08T08:36:17.791Z,44.70
2023-02-08T08:38:45.570Z,44.48
2023-02-08T08:41:17.796Z,44.73
2023-02-08T08:43:45.735Z,44.38
2023-02-08T08:46:15.004Z,44.50
2023-02-08T08:48:42.927Z,44.63
2023-02-08T08:51:35.125Z,44.44
2023-02-08T08:54:06.581Z,44.41
2023-02-08T08:56:34.884Z,44.28
2023-02-08T08:59:02.529Z,44.37
2023-02-08T09:01:33.611Z,44.86
2023-02-08T09:04:02.309Z,44.63
2023-02-08T09:06:30.355Z,44.37
2023-02-08T09:08:58.185Z,44.14
2023-02-08T09:11:25.944Z,44.43
2023-02-08T09:13:56.228Z,43.92
2023-02-08T09:16:25.422Z,44.14
2023-02-08T09:18:53.273Z,44.16
2023-02-08T09:21:26.523Z,43.43
2023-02-08T09:23:54.552Z,43.72
2023-02-08T09:26:23.418Z,43.66
2023-02-08T09:28:51.228Z,43.52
2023-02-08T09:31:33.046Z,43.56
2023-02-08T09:34:01.846Z,43.32
2023-02-08T09:36:34.542Z,43.41
2023-02-08T09:39:14.295Z,42.80
2023-02-08T09:42:00.502Z,42.57
2023-02-08T09:45:04.629Z,42.58
2023-02-08T09:47:36.497Z,42.76
2023-02-08T09:50:42.950Z,42.47
2023-02-08T09:53:30.947Z,42.48
2023-02-08T09:56:06.967Z,42.62
2023-02-08T09:58:49.732Z,42.17
2023-02-08T10:01:36.094Z,41.68
2023-02-08T10:04:30.066Z,41.66
2023-02-08T10:06:57.890Z,42.05
2023-02-08T10:09:27.584Z,41.78
2023-02-08T10:12:14.192Z,40.94
2023-02-08T10:14:59.864Z,41.00
2023-02-08T10:17:58.256Z,40.71
2023-02-08T10:21:14.080Z,40.88
2023-02-08T10:24:03.507Z,41.03
2023-02-08T10:26:44.934Z,40.83
2023-02-08T10:29:35.786Z,41.36
2023-02-08T10:32:35.315Z,40.70
2023-02-08T10:35:11.129Z,40.86
2023-02-08T10:37:43.602Z,40.51
2023-02-08T10:40:31.214Z,40.82
2023-02-08T10:43:31.644Z,40.27
2023-02-08T10:46:23.078Z,40.61
2023-02-08T10:49:15.025Z,40.03
2023-02-08T10:51:43.087Z,40.31
2023-02-08T10:54:13.887Z,39.66
2023-02-08T10:56:57.467Z,40.01
2023-02-08T10:59:59.203Z,39.23
2023-02-08T11:02:33.049Z,39.96
2023-02-08T11:05:07.710Z,39.49
2023-02-08T11:07:37.121Z,39.33
2023-02-08T11:10:19.897Z,39.31
2023-02-08T11:13:06.876Z,39.05
2023-02-08T11:15:40.054Z,39.31
2023-02-08T11:18:49.213Z,39.11
2023-02-08T11:21:34.660Z,38.98
2023-02-08T11:24:35.950Z,39.19
2023-02-08T11:27:40.514Z,38.66
2023-02-08T11:30:14.589Z,38.53
2023-02-08T11:32:46.063Z,38.83
2023-02-08T11:35:26.497Z,38.82
2023-02-08T11:37:58.820Z,38.59
2023-02-08T11:40:37.920Z,38.76
2023-02-08T11:43:06.082Z,38.80
2023-02-08T11:45:36.804Z,38.96
2023-02-08T11:48:07.259Z,38.35
2023-02-08T11:50:38.414Z,38.63
2023-02-08T11:53:27.893Z,38.02
2023-02-08T11:56:15.732Z,37.99
2023-02-08T11:59:22.598Z,38.45
2023-02-08T12:01:50.609Z,38.17
2023-02-08T12:04:18.639Z,38.66
2023-02-08T12:07:17.499Z,38.37
2023-02-08T12:10:12.508Z,38.34
2023-02-08T12:13:01.776Z,37.55
2023-02-08T12:16:01.123Z,37.91
2023-02-08T12:18:50.763Z,37.64
2023-02-08T12:21:27.206Z,37.99
2023-02-08T12:24:49.399Z,37.51
2023-02-08T12:27:27.571Z,37.76
2023-02-08T12:30:29.694Z,37.84
2023-02-08T12:33:43.727Z,37.75
2023-02-08T12:36:45.781Z,37.16
2023-02-08T12:39:36.441Z,37.80
2023-02-08T12:42:27.315Z,37.80
2023-02-08T12:45:17.503Z,37.49
2023-02-08T12:48:12.874Z,37.22
2023-02-08T12:51:00.334Z,37.09
2023-02-08T12:53:35.040Z,37.45
2023-02-08T12:56:12.067Z,37.00
2023-02-08T12:59:01.968Z,36.94
2023-02-08T13:01:47.273Z,36.97
2023-02-08T13:04:26.149Z,37.08
2023-02-08T13:06:59.207Z,37.20
2023-02-08T13:09:35.266Z,37.05
2023-02-08T13:12:20.778Z,36.33
2023-02-08T13:15:03.300Z,36.38
2023-02-08T13:17:54.423Z,36.24
2023-02-08T13:20:47.805Z,36.56
2023-02-08T13:23:52.052Z,36.40
2023-02-08T13:26:33.403Z,36.24
2023-02-08T13:29:03.239Z,36.08
2023-02-08T13:31:39.372Z,36.41
2023-02-08T13:34:31.085Z,36.25
2023-02-08T13:37:08.844Z,36.56
2023-02-08T13:39:44.171Z,36.12
2023-02-08T13:42:33.863Z,35.84
2023-02-08T13:45:02.906Z,36.03
2023-02-08T13:47:45.888Z,36.04
2023-02-08T13:50:51.134Z,35.85
2023-02-08T13:53:39.654Z,35.69
2023-02-08T13:56:13.001Z,35.58
2023-02-08T13:58:49.965Z,35.82
2023-02-08T14:01:19.725Z,35.58
2023-02-08T14:04:12.227Z,35.66
2023-02-08T14:07:00.156Z,35.52
2023-02-08T14:10:01.809Z,35.41
2023-02-08T14:13:08.449Z,35.03
2023-02-08T14:15:40.085Z,35.62
2023-02-08T14:18:26.966Z,34.94
2023-02-08T14:21:05.971Z,35.18
2023-02-08T14:23:40.200Z,35.44
2023-02-08T14:26:24.013Z,35.09
2023-02-08T14:28:58.737Z,35.30
2023-02-08T14:31:43.232Z,35.09
2023-02-08T14:34:38.154Z,34.65
2023-02-08T14:37:18.745Z,35.09
2023-02-08T14:39:50.533Z,34.80
2023-02-08T14:43:04.616Z,34.76
2023-02-08T14:45:39.935Z,34.83
2023-02-08T14:48:48.953Z,34.75
2023-02-08T14:51:32.197Z,34.97
2023-02-08T14:54:35.443Z,35.12
2023-02-08T14:57:36.637Z,35.04
2023-02-08T15:00:21.028Z,34.44
2023-02-08T15:02:52.850Z,34.92
2023-02-08T15:05:30.271Z,34.41
2023-02-08T15:08:00.757Z,34.60
2023-02-08T15:10:30.342Z,34.18
2023-02-08T15:13:03.891Z,34.37
2023-02-08T15:15:39.502Z,34.27
2023-02-08T15:18:20.660Z,34.40
2023-02-08T15:21:05.514Z,34.45
2023-02-08T15:23:33.671Z,34.51
2023-02-08T15:26:22.051Z,34.42
2023-02-08T15:28:50.067Z,34.43
2023-02-08T15:31:23.189Z,34.28
2023-02-08T15:44:24.897Z,34.09
2023-02-08T15:49:41.458Z,34.11
2023-02-08T15:52:17.692Z,33.80
2023-02-08T15:54:46.758Z,33.58
2023-02-08T15:57:40.798Z,34.36
2023-02-08T16:00:21.281Z,34.36
2023-02-08T16:03:00.730Z,34.30
2023-02-08T16:05:33.671Z,34.28
2023-02-08T16:08:03.173Z,34.19
2023-02-08T16:10:42.700Z,33.95
2023-02-08T16:13:20.713Z,33.99
2023-02-08T16:16:07.260Z,34.21
2023-02-08T16:18:57.224Z,34.09
2023-02-08T16:21:24.854Z,34.17
2023-02-08T16:24:05.565Z,34.29
2023-02-08T16:26:56.241Z,34.14
2023-02-08T16:29:31.239Z,34.22
2023-02-08T16:32:05.100Z,34.16
2023-02-08T16:34:39.602Z,34.16
2023-02-08T16:37:32.687Z,34.08
2023-02-08T16:40:41.670Z,34.48
2023-02-08T16:43:20.498Z,34.27
2023-02-08T16:46:11.087Z,34.05
2023-02-08T16:48:55.044Z,34.32
2023-02-08T16:51:29.663Z,34.40
2023-02-08T16:54:09.612Z,34.25
2023-02-08T16:56:39.423Z,34.28
2023-02-08T16:59:08.037Z,34.27
2023-02-08T17:01:36.282Z,34.67
2023-02-08T17:04:04.567Z,34.56
2023-02-08T17:06:36.067Z,34.56
2023-02-08T17:09:05.282Z,34.69
2023-02-08T17:11:33.312Z,34.93
2023-02-08T17:14:01.201Z,34.43
2023-02-08T17:16:31.272Z,34.72
2023-02-08T17:19:00.701Z,35.03
2023-02-08T17:21:29.467Z,34.73
2023-02-08T17:23:58.167Z,34.84
2023-02-08T17:26:32.361Z,34.77
2023-02-08T17:29:00.470Z,34.84
2023-02-08T17:31:29.623Z,34.88
2023-02-08T17:34:07.118Z,34.88
2023-02-08T17:36:37.019Z,34.84
2023-02-08T17:39:06.617Z,34.66
2023-02-08T17:41:34.555Z,34.86
2023-02-08T17:44:02.546Z,34.91
2023-02-08T17:46:30.740Z,34.96
2023-02-08T17:49:01.517Z,34.72
2023-02-08T17:51:29.502Z,35.19
2023-02-08T17:53:57.397Z,34.96
2023-02-08T17:56:28.792Z,35.02
2023-02-08T17:58:56.549Z,34.71
2023-02-08T18:01:26.869Z,34.62
2023-02-08T18:03:54.803Z,35.19
2023-02-08T18:06:24.991Z,35.10
2023-02-08T18:08:54.827Z,35.10
2023-02-08T18:11:23.908Z,34.77
2023-02-08T18:13:53.861Z,34.83
2023-02-08T18:16:26.312Z,35.16
2023-02-08T18:18:59.267Z,35.17
2023-02-08T18:21:27.530Z,35.26
2023-02-08T18:23:55.684Z,35.47
2023-02-08T18:26:25.221Z,35.39
2023-02-08T18:28:53.804Z,35.33
2023-02-08T18:31:22.420Z,35.17
2023-02-08T18:33:51.245Z,35.36
2023-02-08T18:36:20.937Z,35.41
2023-02-08T18:38:52.428Z,35.55
2023-02-08T18:41:25.362Z,35.79
2023-02-08T18:43:56.127Z,35.58
2023-02-08T18:46:28.037Z,35.53
2023-02-08T18:48:56.226Z,35.68
2023-02-08T18:51:26.446Z,35.54
2023-02-08T18:53:56.055Z,35.53
2023-02-08T18:56:27.215Z,35.73
2023-02-08T18:58:58.012Z,35.56
2023-02-08T19:01:25.950Z,35.70
2023-02-08T19:03:54.055Z,35.79
2023-02-08T19:06:25.491Z,35.93
2023-02-08T19:08:56.641Z,35.81
2023-02-08T19:11:31.269Z,35.83
2023-02-08T19:14:02.131Z,36.00
2023-02-08T19:16:32.427Z,35.94
2023-02-08T19:19:01.627Z,35.94
2023-02-08T19:21:30.739Z,36.08
2023-02-08T19:24:00.550Z,35.87
2023-02-08T19:26:40.043Z,35.82
2023-02-08T19:29:13.533Z,36.12
2023-02-08T19:31:42.454Z,36.38
2023-02-08T19:34:11.925Z,36.21
2023-02-08T19:36:52.996Z,35.97
2023-02-08T19:39:24.907Z,36.19
2023-02-08T19:41:54.104Z,35.73
2023-02-08T19:44:22.700Z,36.23
2023-02-08T19:46:55.130Z,36.29
2023-02-08T19:49:25.799Z,36.20
2023-02-08T19:51:54.098Z,36.31
2023-02-08T19:54:22.088Z,36.25
2023-02-08T19:56:52.149Z,36.22
2023-02-08T19:59:28.099Z,36.09
2023-02-08T20:01:56.314Z,36.14
2023-02-08T20:04:24.632Z,35.80
2023-02-08T20:06:54.037Z,35.92
2023-02-08T20:09:24.463Z,36.17
2023-02-08T20:11:59.757Z,36.46
2023-02-08T20:14:32.821Z,36.45
2023-02-08T20:17:04.617Z,35.70
2023-02-08T20:19:37.309Z,36.05
2023-02-08T20:22:05.547Z,36.45
2023-02-08T20:24:33.426Z,36.30
2023-02-08T20:27:01.536Z,36.16
2023-02-08T20:29:29.790Z,36.36
2023-02-08T20:31:58.028Z,36.26
2023-02-08T20:34:26.012Z,36.40
2023-02-08T20:37:06.245Z,36.20
2023-02-08T20:39:36.198Z,36.22
2023-02-08T20:42:04.667Z,36.25
2023-02-08T20:44:32.675Z,36.47
2023-02-08T20:47:01.017Z,36.35
2023-02-08T20:49:30.740Z,36.60
2023-02-08T20:52:19.425Z,36.50
2023-02-08T20:54:47.844Z,36.59
2023-02-08T20:57:16.385Z,36.47
2023-02-08T20:59:46.096Z,36.63
2023-02-08T21:02:23.290Z,36.62
2023-02-08T21:04:51.166Z,36.68
2023-02-08T21:07:19.225Z,36.78
2023-02-08T21:09:47.277Z,36.77
2023-02-08T21:12:15.208Z,36.75
2023-02-08T21:14:44.547Z,36.88
2023-02-08T21:17:12.681Z,37.11
2023-02-08T21:19:40.490Z,36.86
2023-02-08T21:22:08.353Z,36.95
2023-02-08T21:24:36.198Z,37.16
2023-02-08T21:27:04.150Z,37.15
2023-02-08T21:29:32.815Z,37.40
2023-02-08T21:32:01.125Z,37.40
2023-02-08T21:34:29.172Z,37.53
2023-02-08T21:36:57.044Z,37.32
2023-02-08T21:39:24.763Z,37.58
2023-02-08T21:41:53.087Z,38.02
2023-02-08T21:44:21.141Z,37.40
2023-02-08T21:46:48.937Z,37.40
2023-02-08T21:49:35.336Z,37.56
2023-02-08T21:52:21.977Z,37.47
2023-02-08T21:54:53.491Z,37.47
2023-02-08T21:57:25.796Z,37.55
2023-02-08T21:59:58.436Z,37.45
2023-02-08T22:02:29.941Z,37.55
2023-02-08T22:05:20.584Z,37.57
2023-02-08T22:07:56.794Z,37.65
2023-02-08T22:10:28.403Z,37.70
2023-02-08T22:12:57.370Z,37.46
2023-02-08T22:15:29.023Z,37.60
2023-02-08T22:18:00.726Z,37.55
2023-02-08T22:20:29.757Z,37.60
2023-02-08T22:22:57.895Z,37.44
2023-02-08T22:25:25.862Z,37.60
2023-02-08T22:27:53.799Z,37.81
2023-02-08T22:30:25.029Z,37.79
2023-02-08T22:32:53.366Z,37.76
2023-02-08T22:35:21.500Z,37.85
2023-02-08T22:37:49.361Z,38.01
2023-02-08T22:40:17.321Z,38.10
2023-02-08T22:42:45.225Z,38.11
2023-02-08T22:45:13.144Z,37.96
2023-02-08T22:47:40.944Z,38.12
2023-02-08T22:50:09.941Z,37.90
2023-02-08T22:52:38.029Z,37.85
2023-02-08T22:55:06.546Z,38.08
2023-02-08T22:57:37.445Z,37.99
2023-02-08T23:00:09.716Z,38.29
2023-02-08T23:02:37.563Z,38.19
2023-02-08T23:05:05.826Z,38.24
2023-02-08T23:07:33.937Z,38.03
2023-02-08T23:10:01.733Z,37.82
2023-02-08T23:12:30.746Z,37.97
2023-02-08T23:14:58.565Z,37.72
2023-02-08T23:17:26.576Z,37.57
2023-02-08T23:19:54.367Z,37.75
2023-02-08T23:22:22.252Z,37.65
2023-02-08T23:24:50.002Z,37.66
2023-02-08T23:27:17.955Z,37.69
2023-02-08T23:29:45.830Z,37.88
2023-02-08T23:32:13.706Z,37.87
2023-02-08T23:34:41.464Z,37.96
2023-02-08T23:37:09.391Z,37.53
2023-02-08T23:39:37.155Z,37.80
2023-02-08T23:42:05.717Z,37.61
2023-02-08T23:44:33.436Z,37.83
2023-02-08T23:47:01.244Z,37.79
2023-02-08T23:49:28.972Z,38.02
2023-02-08T23:51:56.707Z,37.73
2023-02-08T23:54:24.432Z,38.17
2023-02-08T23:56:52.097Z,37.99
2023-02-08T23:59:19.824Z,37.90
